Time;durP1;ratioP1;P1;durP2;ratioP2;P2;SDS_P1;SDS_P2;PMS_P1;PMS_P2;Temp;Humidity;BMP_temperature;BMP_pressure;BME280_temperature;BME280_humidity;BME280_pressure;Samples;Min_cycle;Max_cycle;Signal;HPM_P1;HPM_P2
2021/05/20 00:00:07;;;;;;;89.47;40.97;;;7.50;99.90;;;;;;4178868;28;20032;-76
2021/05/20 00:02:09;;;;;;;79.05;39.78;;;7.50;99.90;;;;;;4161629;28;20021;-76
2021/05/20 00:06:48;;;;;;;80.97;42.17;;;7.30;99.90;;;;;;4163980;28;20036;-77
2021/05/20 00:09:07;;;;;;;84.75;40.53;;;7.10;99.90;;;;;;4160756;28;20130;-78
2021/05/20 00:11:08;;;;;;;86.97;43.00;;;7.10;99.90;;;;;;4161151;28;20491;-78
2021/05/20 00:13:29;;;;;;;93.22;43.53;;;7.00;99.90;;;;;;4163100;28;20113;-77
2021/05/20 00:20:45;;;;;;;91.30;42.42;;;6.90;99.90;;;;;;4177114;28;20039;-78
2021/05/20 00:23:05;;;;;;;98.85;46.28;;;6.80;99.90;;;;;;4178823;28;20052;-78
2021/05/20 00:25:06;;;;;;;94.47;44.22;;;6.70;99.90;;;;;;4161110;28;20771;-77
2021/05/20 00:27:25;;;;;;;96.10;43.97;;;6.70;99.90;;;;;;4178862;28;20075;-79
2021/05/20 00:32:42;;;;;;;97.82;46.63;;;6.60;99.90;;;;;;4178606;28;20032;-77
2021/05/20 00:35:02;;;;;;;111.55;46.97;;;6.70;99.90;;;;;;4173563;28;20033;-76
2021/05/20 00:37:21;;;;;;;99.68;47.92;;;6.70;99.90;;;;;;4163751;28;20034;-77
2021/05/20 00:39:41;;;;;;;117.55;50.17;;;6.70;99.90;;;;;;4164433;28;20358;-76
2021/05/20 00:41:41;;;;;;;117.57;51.17;;;6.70;99.90;;;;;;4159417;28;20086;-77
2021/05/20 00:44:03;;;;;;;124.55;52.85;;;6.70;99.90;;;;;;4164662;28;20025;-76
2021/05/20 00:49:19;;;;;;;138.55;52.13;;;6.60;99.90;;;;;;4181902;28;20033;-77
2021/05/20 00:51:20;;;;;;;130.43;49.75;;;6.50;99.90;;;;;;4165696;28;20488;-77
2021/05/20 00:53:21;;;;;;;115.32;50.75;;;6.40;99.90;;;;;;4163423;28;20472;-77
2021/05/20 00:55:43;;;;;;;131.63;51.92;;;6.40;99.90;;;;;;4180990;28;20033;-78
2021/05/20 00:58:21;;;;;;;129.57;50.15;;;6.40;99.90;;;;;;4181277;28;20116;-77
2021/05/20 01:00:41;;;;;;;126.95;48.97;;;6.40;99.90;;;;;;4196098;28;20382;-78
2021/05/20 01:05:57;;;;;;;115.43;47.95;;;6.10;99.90;;;;;;4181543;28;20044;-77
2021/05/20 01:08:17;;;;;;;136.35;49.97;;;6.00;99.90;;;;;;4182048;28;20124;-77
2021/05/20 01:10:18;;;;;;;134.88;48.33;;;6.00;99.90;;;;;;4181627;28;20154;-78
2021/05/20 01:12:37;;;;;;;120.57;48.65;;;6.00;99.90;;;;;;4164112;28;20457;-77
2021/05/20 01:17:17;;;;;;;130.02;47.88;;;6.00;99.90;;;;;;4178312;28;20048;-77
2021/05/20 01:19:55;;;;;;;143.27;52.63;;;5.90;99.90;;;;;;4181115;28;20056;-77
2021/05/20 01:21:57;;;;;;;128.75;49.45;;;5.90;99.90;;;;;;4163368;28;20700;-77
2021/05/20 01:23:58;;;;;;;143.10;52.97;;;5.80;99.90;;;;;;4180949;28;20388;-76
2021/05/20 01:30:44;;;;;;;190.77;55.13;;;5.80;99.90;;;;;;4178010;28;20098;-76
2021/05/20 01:35:23;;;;;;;144.90;50.17;;;5.80;99.90;;;;;;4178569;28;20075;-76
2021/05/20 01:39:46;;;;;;;188.15;59.83;;;6.00;99.90;;;;;;4181636;28;20127;-77
2021/05/20 01:44:26;;;;;;;148.10;55.80;;;6.00;99.90;;;;;;4176448;28;20426;-77
2021/05/20 01:46:45;;;;;;;176.55;56.47;;;6.00;99.90;;;;;;4181433;28;20032;-76
2021/05/20 01:48:48;;;;;;;171.27;58.85;;;6.00;99.90;;;;;;4163272;28;20041;-77
2021/05/20 01:50:50;;;;;;;163.85;55.83;;;6.00;99.90;;;;;;4164261;28;20547;-76
2021/05/20 01:53:09;;;;;;;171.40;58.45;;;6.00;99.90;;;;;;4163376;28;20096;-76
2021/05/20 01:55:10;;;;;;;163.35;55.22;;;6.00;99.90;;;;;;4151092;28;20027;-77
2021/05/20 01:57:48;;;;;;;174.38;59.58;;;5.90;99.90;;;;;;4165315;28;20120;-76
2021/05/20 01:59:49;;;;;;;168.10;56.65;;;6.00;99.90;;;;;;4165096;28;20029;-76
2021/05/20 02:04:09;;;;;;;187.90;57.88;;;6.00;99.90;;;;;;4153023;28;20036;-78
2021/05/20 02:12:21;;;;;;;168.90;55.25;;;6.10;99.90;;;;;;4164586;28;20544;-78
2021/05/20 02:17:39;;;;;;;210.05;60.03;;;6.10;99.90;;;;;;4162795;28;20068;-76
2021/05/20 02:19:39;;;;;;;183.30;57.63;;;6.00;99.90;;;;;;4163638;28;20034;-76
2021/05/20 02:21:58;;;;;;;207.82;59.67;;;5.90;99.90;;;;;;4162437;28;20068;-77
2021/05/20 02:24:18;;;;;;;209.00;61.70;;;6.00;99.90;;;;;;4156220;28;20484;-76
2021/05/20 02:26:19;;;;;;;226.52;64.95;;;6.40;99.90;;;;;;4158497;28;20032;-77
2021/05/20 02:28:39;;;;;;;202.18;64.47;;;6.60;99.90;;;;;;4164056;28;20380;-77
2021/05/20 02:31:00;;;;;;;225.50;67.68;;;6.90;99.90;;;;;;4161973;28;20115;-77
2021/05/20 02:35:21;;;;;;;256.17;66.13;;;7.20;99.90;;;;;;4164040;28;20385;-76
2021/05/20 02:39:41;;;;;;;434.65;81.00;;;7.60;99.90;;;;;;4164096;28;20040;-77
2021/05/20 02:42:01;;;;;;;497.90;86.00;;;7.80;99.90;;;;;;4178577;28;20384;-79
2021/05/20 02:44:01;;;;;;;444.30;76.22;;;7.90;99.90;;;;;;4163007;28;20055;-77
2021/05/20 02:46:21;;;;;;;563.03;92.75;;;8.10;99.90;;;;;;4155957;28;20121;-76
2021/05/20 02:48:23;;;;;;;432.73;68.95;;;8.00;99.90;;;;;;4160242;28;20026;-76
2021/05/20 02:50:25;;;;;;;485.92;80.05;;;8.00;99.90;;;;;;4161781;28;20089;-79
2021/05/20 02:52:26;;;;;;;338.83;66.32;;;8.00;99.90;;;;;;4163285;28;20048;-77
2021/05/20 02:54:45;;;;;;;442.33;71.32;;;8.00;99.90;;;;;;4161748;28;20029;-76
2021/05/20 02:56:46;;;;;;;423.27;69.40;;;8.00;99.90;;;;;;4163529;28;20049;-77
2021/05/20 02:58:47;;;;;;;553.97;81.70;;;8.00;99.90;;;;;;4163925;28;20439;-77
2021/05/20 03:01:06;;;;;;;376.23;63.40;;;8.00;99.90;;;;;;4151249;28;20155;-77
2021/05/20 03:03:07;;;;;;;401.52;70.80;;;8.00;99.90;;;;;;4163685;28;20030;-77
2021/05/20 03:05:08;;;;;;;688.53;96.20;;;7.90;99.90;;;;;;4163875;28;20033;-77
2021/05/20 03:09:49;;;;;;;408.17;69.40;;;7.80;99.90;;;;;;4154273;28;20078;-76
2021/05/20 03:12:09;;;;;;;572.95;86.18;;;7.90;99.90;;;;;;4164130;28;20032;-77
2021/05/20 03:14:46;;;;;;;551.63;78.85;;;7.90;99.90;;;;;;4177213;28;20082;-76
2021/05/20 03:17:11;;;;;;;398.27;68.00;;;7.80;99.90;;;;;;4162877;28;20042;-77
2021/05/20 03:21:50;;;;;;;406.58;69.22;;;7.90;99.90;;;;;;4163814;28;20063;-77
2021/05/20 03:24:09;;;;;;;458.42;74.72;;;7.90;99.90;;;;;;4162574;28;20432;-77
2021/05/20 03:28:29;;;;;;;430.83;71.53;;;8.00;99.90;;;;;;4163781;28;20484;-76
2021/05/20 03:30:49;;;;;;;502.77;80.28;;;8.00;99.90;;;;;;4162039;28;20041;-77
2021/05/20 03:33:08;;;;;;;455.27;71.50;;;8.00;99.90;;;;;;4163431;28;20036;-76
2021/05/20 03:35:09;;;;;;;480.73;67.78;;;8.10;99.90;;;;;;4158309;28;20032;-76
2021/05/20 03:37:16;;;;;;;410.65;67.60;;;8.00;99.90;;;;;;4154633;28;20495;-77
2021/05/20 03:39:18;;;;;;;635.55;89.82;;;8.00;99.90;;;;;;4157428;28;20580;-77
2021/05/20 03:43:57;;;;;;;597.63;79.78;;;8.00;99.90;;;;;;4153298;28;20400;-75
2021/05/20 03:45:58;;;;;;;592.25;81.03;;;8.00;99.90;;;;;;4163806;28;20040;-76
2021/05/20 03:48:37;;;;;;;534.10;81.93;;;8.00;99.90;;;;;;4162995;28;20026;-76
2021/05/20 03:51:00;;;;;;;588.13;83.10;;;8.00;99.90;;;;;;4166586;28;20042;-76
2021/05/20 03:53:21;;;;;;;599.70;83.40;;;8.00;99.90;;;;;;4168582;28;20035;-77
2021/05/20 03:55:22;;;;;;;741.05;89.65;;;8.00;99.90;;;;;;4166436;28;20037;-77
2021/05/20 04:00:19;;;;;;;508.33;71.13;;;8.00;99.90;;;;;;4176333;28;20094;-76
2021/05/20 04:02:20;;;;;;;569.05;75.28;;;8.20;99.90;;;;;;4177473;28;20045;-77
2021/05/20 04:06:59;;;;;;;494.52;64.93;;;8.30;99.90;;;;;;4177507;28;20043;-78
2021/05/20 04:09:02;;;;;;;566.83;68.88;;;8.30;99.90;;;;;;4161742;28;20108;-78
2021/05/20 04:11:25;;;;;;;564.20;71.13;;;8.30;99.90;;;;;;4160363;28;20040;-76
2021/05/20 04:15:59;;;;;;;581.05;69.88;;;8.30;99.90;;;;;;4174812;28;20075;-77
2021/05/20 04:20:38;;;;;;;553.58;72.03;;;8.30;99.90;;;;;;4178539;28;20116;-77
2021/05/20 04:22:57;;;;;;;570.60;72.57;;;8.30;99.90;;;;;;4168121;28;20385;-77
2021/05/20 04:24:58;;;;;;;493.60;64.85;;;8.20;99.90;;;;;;4178524;28;20025;-77
2021/05/20 04:26:58;;;;;;;490.90;64.68;;;8.10;99.90;;;;;;4160984;28;20097;-77
2021/05/20 04:31:56;;;;;;;450.35;58.33;;;8.20;99.90;;;;;;4178569;28;20040;-76
2021/05/20 04:36:24;;;;;;;411.20;57.40;;;8.30;99.90;;;;;;4176009;28;20103;-77
2021/05/20 04:41:03;;;;;;;388.65;54.78;;;8.30;99.90;;;;;;4175581;28;20067;-76
2021/05/20 04:43:04;;;;;;;473.63;64.65;;;8.30;99.90;;;;;;4160866;28;20551;-77
2021/05/20 04:45:23;;;;;;;428.35;58.35;;;8.40;99.90;;;;;;4179240;28;20033;-77
2021/05/20 04:50:23;;;;;;;404.63;56.70;;;8.30;99.90;;;;;;4177372;28;20090;-77
2021/05/20 04:52:25;;;;;;;495.65;65.60;;;8.40;99.90;;;;;;4175555;28;20057;-76
2021/05/20 04:54:44;;;;;;;515.55;72.03;;;8.40;99.90;;;;;;4178801;28;20040;-77
2021/05/20 04:57:03;;;;;;;378.02;57.60;;;8.30;99.90;;;;;;4160596;28;20045;-77
2021/05/20 04:59:24;;;;;;;402.77;61.22;;;8.40;99.90;;;;;;4174776;28;20456;-77
2021/05/20 05:01:43;;;;;;;379.30;59.92;;;8.30;99.90;;;;;;4160928;28;20040;-77
2021/05/20 05:03:46;;;;;;;281.95;50.28;;;8.40;99.90;;;;;;4161239;28;20485;-77
2021/05/20 05:06:05;;;;;;;257.60;50.40;;;8.50;99.90;;;;;;4161384;28;20057;-78
2021/05/20 05:10:25;;;;;;;239.57;49.13;;;8.50;99.90;;;;;;4178655;28;20931;-79
2021/05/20 05:12:26;;;;;;;477.98;64.10;;;8.50;99.90;;;;;;4161237;28;20025;-78
2021/05/20 05:14:46;;;;;;;413.27;62.45;;;8.50;99.90;;;;;;4178344;28;20036;-78
2021/05/20 05:19:25;;;;;;;289.25;52.50;;;8.50;99.90;;;;;;4178729;28;20114;-75
2021/05/20 05:21:26;;;;;;;351.13;58.60;;;8.50;99.90;;;;;;4178867;28;20025;-76
2021/05/20 05:24:04;;;;;;;220.98;47.70;;;8.50;99.90;;;;;;4182067;28;20071;-78
2021/05/20 05:28:25;;;;;;;180.15;43.83;;;8.70;99.90;;;;;;4182097;28;20047;-76
2021/05/20 05:30:26;;;;;;;269.45;50.95;;;8.70;99.90;;;;;;4162720;28;20528;-76
2021/05/20 05:32:27;;;;;;;355.95;58.03;;;8.80;99.90;;;;;;4181713;28;20036;-77
2021/05/20 05:34:46;;;;;;;277.13;51.03;;;8.70;99.90;;;;;;4164253;28;20034;-77
2021/05/20 05:39:06;;;;;;;189.23;47.08;;;8.90;99.90;;;;;;4178049;28;20099;-78
2021/05/20 05:41:06;;;;;;;193.77;43.05;;;8.90;99.90;;;;;;4163315;28;20472;-77
2021/05/20 05:43:26;;;;;;;225.45;42.70;;;9.00;99.90;;;;;;4155740;28;20571;-77
2021/05/20 05:45:26;;;;;;;247.20;39.55;;;9.10;99.90;;;;;;4181233;28;20021;-77
2021/05/20 05:52:26;;;;;;;255.15;45.17;;;9.20;99.90;;;;;;4179843;28;20044;-78
2021/05/20 05:54:46;;;;;;;233.65;43.40;;;9.20;99.90;;;;;;4163573;28;20500;-76
2021/05/20 06:06:28;;;;;;;187.15;42.05;;;9.60;99.90;;;;;;4181324;28;20039;-76
2021/05/20 06:11:26;;;;;;;178.27;43.97;;;9.60;99.90;;;;;;4179050;28;20182;-76
2021/05/20 06:16:24;;;;;;;130.40;42.42;;;9.70;99.90;;;;;;4178505;28;20071;-75
2021/05/20 06:18:43;;;;;;;137.85;45.33;;;9.90;99.90;;;;;;4162299;28;20053;-76
2021/05/20 06:21:03;;;;;;;126.40;42.63;;;10.10;99.90;;;;;;4175408;28;20041;-76
2021/05/20 06:23:04;;;;;;;113.28;40.25;;;10.20;99.90;;;;;;4178260;28;20041;-76
2021/05/20 06:32:40;;;;;;;91.75;38.08;;;10.60;99.90;;;;;;4179642;28;20375;-77
2021/05/20 06:34:59;;;;;;;76.97;33.95;;;10.60;99.90;;;;;;4161429;28;20093;-77
2021/05/20 06:37:02;;;;;;;78.32;36.42;;;10.60;99.90;;;;;;4161518;28;20045;-76
2021/05/20 06:39:23;;;;;;;81.88;35.33;;;10.70;99.90;;;;;;4176503;28;20526;-76
2021/05/20 06:41:23;;;;;;;91.45;35.72;;;10.90;99.90;;;;;;4176663;28;20024;-77
2021/05/20 06:43:43;;;;;;;76.95;33.30;;;10.90;99.90;;;;;;4175631;28;20468;-77
2021/05/20 06:48:41;;;;;;;78.85;36.28;;;11.10;99.90;;;;;;4177743;28;20049;-76
2021/05/20 06:53:23;;;;;;;65.40;31.60;;;11.20;99.90;;;;;;4179706;28;20035;-76
2021/05/20 07:02:42;;;;;;;51.88;30.50;;;11.30;99.90;;;;;;4179848;28;20079;-77
2021/05/20 07:07:20;;;;;;;50.25;33.47;;;11.80;99.90;;;;;;4176664;28;20408;-75
2021/05/20 07:09:21;;;;;;;47.35;30.08;;;11.80;99.90;;;;;;4179617;28;20068;-76
2021/05/20 07:14:37;;;;;;;45.65;30.27;;;11.90;99.90;;;;;;4178853;28;20083;-75
2021/05/20 07:18:57;;;;;;;50.17;36.53;;;12.30;99.90;;;;;;4176489;28;20052;-77
2021/05/20 07:20:58;;;;;;;51.60;33.65;;;12.20;99.90;;;;;;4177639;28;20136;-75
2021/05/20 07:23:11;;;;;;;55.15;39.33;;;12.30;99.90;;;;;;4178688;28;20025;-76
2021/05/20 07:25:30;;;;;;;47.25;32.08;;;12.10;99.90;;;;;;4178462;28;20087;-76
2021/05/20 07:27:50;;;;;;;51.17;34.08;;;12.00;99.90;;;;;;4177963;28;20056;-77
2021/05/20 07:29:50;;;;;;;48.80;33.17;;;12.20;99.90;;;;;;4177475;28;20037;-77
2021/05/20 07:31:51;;;;;;;48.15;34.08;;;12.40;99.90;;;;;;4178546;28;20043;-77
2021/05/20 07:36:30;;;;;;;54.63;37.42;;;12.70;99.90;;;;;;4177106;28;20040;-76
2021/05/20 07:38:32;;;;;;;48.30;32.97;;;12.80;99.90;;;;;;4179261;28;20040;-77
2021/05/20 07:40:34;;;;;;;50.27;35.00;;;13.10;99.90;;;;;;4160803;28;20043;-77
2021/05/20 07:42:34;;;;;;;55.13;38.22;;;13.20;99.90;;;;;;4162977;28;20041;-77
2021/05/20 07:46:56;;;;;;;71.50;43.40;;;13.10;99.90;;;;;;4185071;28;20036;-77
2021/05/20 07:51:53;;;;;;;62.75;39.20;;;13.20;99.90;;;;;;4178138;28;20129;-76
2021/05/20 07:53:54;;;;;;;59.60;38.88;;;13.00;99.90;;;;;;4161201;28;20372;-77
2021/05/20 07:55:56;;;;;;;65.00;44.13;;;12.60;99.90;;;;;;4178191;28;20037;-77
2021/05/20 08:05:37;;;;;;;49.00;32.92;;;13.20;99.90;;;;;;4177120;28;20499;-77
2021/05/20 08:08:12;;;;;;;47.33;31.67;;;13.40;99.90;;;;;;4160583;28;20029;-75
2021/05/20 08:12:38;;;;;;;47.33;34.45;;;13.30;99.90;;;;;;4172834;28;20039;-76
2021/05/20 08:14:39;;;;;;;53.33;37.17;;;13.60;99.90;;;;;;4160916;28;20033;-76
2021/05/20 08:16:40;;;;;;;54.42;38.50;;;13.50;99.90;;;;;;4178975;28;20048;-76
2021/05/20 08:18:40;;;;;;;56.78;39.88;;;13.50;99.90;;;;;;4179511;28;20123;-78
2021/05/20 08:26:19;;;;;;;47.83;34.90;;;13.70;99.90;;;;;;4178820;28;20687;-76
2021/05/20 08:28:20;;;;;;;43.47;30.55;;;13.70;99.90;;;;;;4171260;28;20029;-75
2021/05/20 08:33:18;;;;;;;47.22;36.00;;;13.90;99.90;;;;;;4178776;28;20036;-75
2021/05/20 08:35:19;;;;;;;42.17;31.92;;;13.60;99.90;;;;;;4160725;28;20440;-76
2021/05/20 08:37:39;;;;;;;51.47;35.70;;;13.60;99.90;;;;;;4178064;28;20037;-76
2021/05/20 08:39:58;;;;;;;54.80;35.20;;;13.70;99.90;;;;;;4171901;28;20037;-76
2021/05/20 08:41:59;;;;;;;44.88;35.70;;;13.90;99.90;;;;;;4173489;28;21087;-76
2021/05/20 08:44:11;;;;;;;51.58;37.53;;;13.80;99.90;;;;;;4177804;28;20041;-75
2021/05/20 08:46:31;;;;;;;43.25;35.38;;;14.20;99.90;;;;;;4158980;28;20026;-78
2021/05/20 08:51:11;;;;;;;40.65;32.17;;;14.80;99.90;;;;;;4177069;28;20086;-76
2021/05/20 08:53:13;;;;;;;48.28;34.22;;;14.60;99.90;;;;;;4160360;28;20033;-76
2021/05/20 08:57:55;;;;;;;41.83;32.67;;;14.80;99.90;;;;;;4179988;28;20138;-76
2021/05/20 09:05:57;;;;;;;40.70;32.25;;;15.30;99.90;;;;;;4178886;28;20091;-76
2021/05/20 09:08:01;;;;;;;35.97;29.63;;;15.30;99.90;;;;;;4181472;28;20029;-77
2021/05/20 09:15:42;;;;;;;;;;;15.50;99.90;;;;;;4180073;28;20033;-77
2021/05/20 09:18:07;;;;;;;36.53;30.35;;;15.60;99.90;;;;;;4180003;28;19948;-76
2021/05/20 09:20:27;;;;;;;36.30;28.98;;;15.70;99.90;;;;;;4162905;28;20128;-77
2021/05/20 09:25:08;;;;;;;31.50;25.52;;;15.60;99.90;;;;;;4181357;28;20380;-77
2021/05/20 09:32:48;;;;;;;27.73;21.10;;;16.30;99.90;;;;;;4178691;28;20075;-77
2021/05/20 09:35:09;;;;;;;29.48;26.30;;;15.80;99.90;;;;;;4159637;28;20025;-77
2021/05/20 09:37:10;;;;;;;30.73;26.52;;;15.20;99.90;;;;;;4166390;28;20037;-77
2021/05/20 09:42:11;;;;;;;28.73;24.20;;;14.90;99.90;;;;;;4180910;28;20384;-77
2021/05/20 09:49:45;;;;;;;30.23;26.67;;;14.60;99.90;;;;;;4177356;28;20044;-78
2021/05/20 09:52:04;;;;;;;33.47;27.05;;;15.10;99.90;;;;;;4180700;28;20033;-79
2021/05/20 09:54:05;;;;;;;32.13;28.33;;;15.40;99.90;;;;;;4179625;28;20558;-77
2021/05/20 09:56:44;;;;;;;30.67;25.92;;;15.80;99.90;;;;;;4180851;28;20041;-77
2021/05/20 10:01:39;;;;;;;30.00;25.90;;;16.30;99.90;;;;;;4173046;28;20028;-78
2021/05/20 10:03:50;;;;;;;30.17;25.10;;;16.10;99.90;;;;;;4162397;28;20064;-78
2021/05/20 10:06:28;;;;;;;29.33;24.95;;;16.20;99.90;;;;;;4151485;28;20044;-77
2021/05/20 10:08:32;;;;;;;29.25;24.70;;;16.60;99.90;;;;;;4174451;28;20132;-77
2021/05/20 10:10:38;;;;;;;27.83;24.35;;;16.60;99.90;;;;;;4180298;28;20063;-76
2021/05/20 10:12:58;;;;;;;28.02;23.92;;;16.60;99.90;;;;;;4179666;28;20033;-76
2021/05/20 10:15:00;;;;;;;24.58;21.58;;;16.10;99.90;;;;;;4174348;28;20086;-75
2021/05/20 10:17:19;;;;;;;25.23;20.42;;;16.30;99.90;;;;;;4180049;28;20033;-77
2021/05/20 10:21:40;;;;;;;27.98;22.15;;;16.80;99.90;;;;;;4179803;28;20431;-76
2021/05/20 10:24:00;;;;;;;24.92;21.90;;;16.60;99.90;;;;;;4145567;28;20038;-76
2021/05/20 10:26:01;;;;;;;24.40;20.95;;;16.70;99.90;;;;;;4171112;28;20120;-77
2021/05/20 10:30:43;;;;;;;26.40;23.60;;;16.60;99.90;;;;;;4180739;28;20044;-76
2021/05/20 10:33:21;;;;;;;25.63;22.85;;;16.80;99.90;;;;;;4162516;28;20112;-76
2021/05/20 10:35:44;;;;;;;28.42;25.48;;;17.40;99.90;;;;;;4164421;28;20037;-77
2021/05/20 10:37:44;;;;;;;28.77;25.23;;;18.00;99.90;;;;;;4169061;28;20045;-77
2021/05/20 10:40:24;;;;;;;29.08;25.98;;;17.90;99.90;;;;;;4180493;28;20207;-77
2021/05/20 10:45:29;;;;;;;26.90;24.13;;;17.70;99.90;;;;;;4178785;28;20067;-76
2021/05/20 10:52:47;;;;;;;27.58;23.85;;;18.20;99.90;;;;;;4179546;28;20028;-76
2021/05/20 10:55:07;;;;;;;28.85;25.80;;;17.90;99.90;;;;;;4179034;28;20083;-76
2021/05/20 10:57:46;;;;;;;29.80;25.65;;;18.30;99.90;;;;;;4170710;28;20531;-75
2021/05/20 10:59:46;;;;;;;32.38;25.33;;;18.50;99.90;;;;;;4180360;28;20044;-77
2021/05/20 11:04:07;;;;;;;31.55;27.02;;;18.60;99.90;;;;;;4178428;28;20044;-76
2021/05/20 11:06:42;;;;;;;32.70;27.77;;;18.80;99.90;;;;;;4179831;28;20550;-76
2021/05/20 11:09:02;;;;;;;30.05;26.77;;;19.20;99.90;;;;;;4177833;28;20170;-76
2021/05/20 11:11:30;;;;;;;34.97;28.58;;;19.40;99.90;;;;;;4177416;28;20597;-76
2021/05/20 11:13:41;;;;;;;30.83;25.95;;;18.70;99.90;;;;;;4178714;28;20056;-77
2021/05/20 11:19:25;;;;;;;42.20;33.67;;;18.90;99.90;;;;;;4174805;28;20449;-77
2021/05/20 11:21:48;;;;;;;39.15;33.58;;;18.80;99.90;;;;;;4175150;28;20033;-76
2021/05/20 11:26:33;;;;;;;44.20;33.83;;;19.90;99.90;;;;;;4171068;28;20049;-77
2021/05/20 11:36:53;;;;;;;45.22;37.00;;;21.00;99.90;;;;;;4178754;28;20500;-76
2021/05/20 11:43:56;;;;;;;40.33;35.40;;;20.40;99.90;;;;;;4168631;28;20033;-76
2021/05/20 11:49:21;;;;;;;42.50;34.97;;;19.50;99.90;;;;;;4170721;28;20068;-77
2021/05/20 11:51:58;;;;;;;38.33;32.92;;;18.50;99.90;;;;;;4150484;28;20046;-76
2021/05/20 11:54:13;;;;;;;36.45;31.55;;;18.60;99.90;;;;;;4097628;28;20027;-77
2021/05/20 11:56:13;;;;;;;42.78;33.55;;;18.40;99.90;;;;;;4114086;28;20047;-76
2021/05/20 11:58:43;;;;;;;36.67;31.92;;;18.70;99.90;;;;;;4120292;28;20023;-76
2021/05/20 12:01:02;;;;;;;33.13;29.65;;;19.20;99.90;;;;;;4111787;28;20045;-76
2021/05/20 12:03:27;;;;;;;33.20;29.60;;;19.40;99.90;;;;;;4164757;28;20028;-75
2021/05/20 12:05:47;;;;;;;36.13;31.08;;;19.70;99.90;;;;;;4160826;28;20183;-76
2021/05/20 12:08:06;;;;;;;34.83;31.20;;;19.50;99.90;;;;;;4178463;28;20045;-76
2021/05/20 12:10:10;;;;;;;37.83;31.38;;;19.10;99.90;;;;;;4175962;28;20139;-76
2021/05/20 12:12:12;;;;;;;37.60;32.75;;;19.00;99.90;;;;;;4177192;28;20099;-76
2021/05/20 12:14:41;;;;;;;39.05;32.92;;;19.00;99.90;;;;;;4177921;28;20027;-77
2021/05/20 12:17:00;;;;;;;34.78;30.83;;;19.30;99.90;;;;;;4178871;28;20041;-76
2021/05/20 12:19:02;;;;;;;31.90;28.48;;;19.10;99.90;;;;;;4177399;28;20115;-76
2021/05/20 12:21:27;;;;;;;32.92;29.45;;;19.00;99.90;;;;;;4176658;28;20036;-76
2021/05/20 12:23:28;;;;;;;31.95;28.60;;;19.20;99.90;;;;;;4159328;28;20120;-76
2021/05/20 12:25:28;;;;;;;31.38;28.05;;;19.10;99.90;;;;;;4178850;28;20025;-77
2021/05/20 12:27:50;;;;;;;26.23;23.48;;;19.20;99.90;;;;;;4177358;28;20436;-76
2021/05/20 12:30:02;;;;;;;30.23;26.92;;;19.60;99.90;;;;;;4158180;28;20487;-73
2021/05/20 12:32:05;;;;;;;30.75;27.48;;;19.40;99.90;;;;;;4160321;28;20067;-75
2021/05/20 12:34:26;;;;;;;32.65;29.02;;;19.40;99.90;;;;;;4163811;28;20524;-75
2021/05/20 12:36:46;;;;;;;40.53;31.42;;;19.30;99.90;;;;;;4162251;28;20037;-75
2021/05/20 12:39:05;;;;;;;30.13;26.85;;;19.20;99.90;;;;;;4181078;28;20041;-76
2021/05/20 12:41:25;;;;;;;29.92;26.75;;;19.00;99.90;;;;;;4163120;28;20488;-75
2021/05/20 12:43:44;;;;;;;28.92;25.85;;;18.80;99.90;;;;;;4181324;28;20749;-75
2021/05/20 12:45:44;;;;;;;27.88;24.88;;;18.40;99.90;;;;;;4163530;28;20037;-75
2021/05/20 12:50:55;;;;;;;25.35;22.58;;;18.30;99.90;;;;;;4177989;28;20044;-76
2021/05/20 12:52:58;;;;;;;24.27;21.77;;;18.20;99.90;;;;;;4158334;28;20524;-76
2021/05/20 12:55:08;;;;;;;26.77;23.80;;;18.30;99.90;;;;;;4181785;28;20598;-76
2021/05/20 12:57:09;;;;;;;30.13;26.25;;;18.20;99.90;;;;;;4181545;28;20507;-76
2021/05/20 12:59:32;;;;;;;31.75;28.30;;;18.20;99.90;;;;;;4164162;28;20025;-76
2021/05/20 13:01:53;;;;;;;31.33;28.10;;;17.90;99.90;;;;;;4179609;28;20044;-75
2021/05/20 13:08:54;;;;;;;25.35;22.58;;;17.30;99.90;;;;;;4180929;28;20032;-76
2021/05/20 13:10:56;;;;;;;19.70;17.52;;;17.30;99.90;;;;;;4181606;28;20021;-76
2021/05/20 13:13:16;;;;;;;15.77;14.23;;;17.50;99.90;;;;;;4163767;28;20072;-74
2021/05/20 13:15:17;;;;;;;13.85;12.40;;;17.60;99.90;;;;;;4151891;28;20034;-75
2021/05/20 13:20:15;;;;;;;13.68;11.55;;;18.30;99.90;;;;;;4180392;28;20041;-75
2021/05/20 13:22:39;;;;;;;18.33;12.93;;;18.60;99.90;;;;;;4161727;28;20117;-75
2021/05/20 13:26:59;;;;;;;13.85;12.52;;;18.60;99.90;;;;;;4181257;28;20036;-75
2021/05/20 13:29:00;;;;;;;17.02;15.38;;;18.80;99.90;;;;;;4160741;28;20148;-75
2021/05/20 13:31:04;;;;;;;19.33;17.30;;;18.30;99.90;;;;;;4163291;28;20032;-75
2021/05/20 13:33:43;;;;;;;19.08;17.23;;;18.00;99.90;;;;;;4180630;28;20521;-74
2021/05/20 13:36:04;;;;;;;16.92;15.20;;;17.90;99.90;;;;;;4157008;28;20040;-75
2021/05/20 13:38:24;;;;;;;16.25;14.52;;;17.70;99.90;;;;;;4180316;28;20025;-75
2021/05/20 13:40:44;;;;;;;15.20;13.05;;;17.50;99.90;;;;;;4180170;28;20622;-75
2021/05/20 13:48:41;;;;;;;11.82;10.55;;;17.40;99.90;;;;;;4179037;28;20086;-75
2021/05/20 13:50:44;;;;;;;12.00;9.38;;;17.00;99.90;;;;;;4156263;28;20046;-75
2021/05/20 13:52:45;;;;;;;12.70;10.68;;;17.00;99.90;;;;;;4163087;28;20481;-75
2021/05/20 13:54:50;;;;;;;13.55;10.82;;;16.90;99.90;;;;;;4180917;28;20067;-75
2021/05/20 13:57:09;;;;;;;14.60;9.85;;;16.80;99.90;;;;;;4161754;28;20033;-75
2021/05/20 13:59:10;;;;;;;10.75;8.98;;;16.90;99.90;;;;;;4179721;28;20399;-75
2021/05/20 14:01:11;;;;;;;11.85;8.75;;;17.10;99.90;;;;;;4179876;28;20064;-74
2021/05/20 14:03:32;;;;;;;8.95;8.00;;;17.30;99.90;;;;;;4162216;28;20034;-75
2021/05/20 14:05:34;;;;;;;8.63;7.82;;;17.60;99.90;;;;;;4180043;28;20203;-76
2021/05/20 14:07:35;;;;;;;8.30;7.55;;;17.80;99.90;;;;;;4178439;28;20033;-76
2021/05/20 14:09:36;;;;;;;8.23;7.40;;;17.80;99.90;;;;;;4180600;28;20448;-75
2021/05/20 14:11:55;;;;;;;13.82;7.45;;;17.80;99.90;;;;;;4162651;28;20040;-76
2021/05/20 14:13:56;;;;;;;8.30;7.50;;;17.70;99.90;;;;;;4162200;28;20030;-76
2021/05/20 14:15:57;;;;;;;8.68;7.10;;;17.60;99.90;;;;;;4177957;28;20025;-76
2021/05/20 14:23:33;;;;;;;8.43;7.18;;;17.40;99.90;;;;;;4178096;28;20415;-76
2021/05/20 14:28:12;;;;;;;9.40;7.82;;;17.40;99.90;;;;;;4179785;28;20023;-75
2021/05/20 14:30:13;;;;;;;7.93;6.82;;;17.40;99.90;;;;;;4179938;28;20052;-75
2021/05/20 14:32:14;;;;;;;10.10;7.63;;;17.40;99.90;;;;;;4180074;28;20205;-76
2021/05/20 14:34:18;;;;;;;8.98;8.05;;;17.30;99.90;;;;;;4162300;28;20021;-77
2021/05/20 14:36:18;;;;;;;8.73;6.32;;;17.20;99.90;;;;;;4162323;28;20496;-77
2021/05/20 14:38:19;;;;;;;11.57;9.02;;;17.10;99.90;;;;;;4180088;28;20018;-75
2021/05/20 14:45:20;;;;;;;15.68;8.68;;;16.60;99.90;;;;;;4179817;28;20081;-76
2021/05/20 14:47:45;;;;;;;11.60;6.50;;;16.50;99.90;;;;;;4162304;28;20029;-76
2021/05/20 14:50:04;;;;;;;10.43;6.70;;;16.50;99.90;;;;;;4161802;28;20048;-76
2021/05/20 14:54:29;;;;;;;10.30;7.18;;;16.80;99.90;;;;;;4173840;28;20025;-76
2021/05/20 14:57:03;;;;;;;9.90;7.28;;;16.90;99.90;;;;;;4178949;28;20060;-76
2021/05/20 15:10:56;;;;;;;7.88;5.70;;;17.20;99.90;;;;;;4170592;28;20039;-76
2021/05/20 15:13:03;;;;;;;;;;;17.30;99.90;;;;;;4179303;28;20151;-76
2021/05/20 15:15:31;;;;;;;7.80;5.13;;;17.50;99.90;;;;;;4173345;28;19919;-74
2021/05/20 15:22:48;;;;;;;7.10;4.35;;;17.40;99.90;;;;;;4179587;28;20070;-75
2021/05/20 15:27:29;;;;;;;5.93;4.20;;;17.50;99.90;;;;;;4179688;28;20054;-75
2021/05/20 15:29:30;;;;;;;7.78;4.75;;;17.40;99.90;;;;;;4161498;28;20044;-75
2021/05/20 15:31:49;;;;;;;7.60;5.20;;;17.30;99.90;;;;;;4162039;28;20029;-75
2021/05/20 15:34:08;;;;;;;6.25;4.30;;;17.40;99.90;;;;;;4179785;28;20060;-76
2021/05/20 15:36:09;;;;;;;7.82;5.40;;;17.40;99.90;;;;;;4178520;28;20041;-76
2021/05/20 15:38:10;;;;;;;7.00;4.70;;;17.30;99.90;;;;;;4178876;28;20040;-77
2021/05/20 15:40:30;;;;;;;7.65;4.97;;;17.40;99.90;;;;;;4161799;28;20034;-76
2021/05/20 15:45:28;;;;;;;6.32;4.32;;;17.50;99.90;;;;;;4178105;28;20056;-76
2021/05/20 15:47:52;;;;;;;9.38;5.15;;;17.50;99.90;;;;;;4179366;28;20025;-76
2021/05/20 15:50:16;;;;;;;8.35;4.78;;;17.70;99.90;;;;;;4161833;28;20037;-76
2021/05/20 15:54:56;;;;;;;5.63;4.82;;;17.60;99.90;;;;;;4179662;28;20036;-76
2021/05/20 15:56:56;;;;;;;11.18;5.65;;;17.60;99.90;;;;;;4177425;28;20097;-76
2021/05/20 16:01:35;;;;;;;6.43;4.90;;;17.50;99.90;;;;;;4179000;28;20087;-76
2021/05/20 16:03:54;;;;;;;8.52;4.80;;;17.30;99.90;;;;;;4167895;28;20045;-76